createdAt,value
2022-09-13T00:00:30.985Z,83.63
2022-09-13T00:01:22.825Z,83.51
2022-09-13T00:01:54.631Z,83.57
2022-09-13T00:02:26.565Z,83.68
2022-09-13T00:02:58.915Z,83.48
2022-09-13T00:03:30.963Z,83.60
2022-09-13T00:04:03.904Z,83.66
2022-09-13T00:04:35.533Z,83.56
2022-09-13T00:05:07.536Z,83.65
2022-09-13T00:05:39.415Z,83.54
2022-09-13T00:06:17.112Z,83.62
2022-09-13T00:06:48.729Z,83.54
2022-09-13T00:07:20.333Z,83.52
2022-09-13T00:07:52.644Z,83.46
2022-09-13T00:08:24.342Z,83.53
2022-09-13T00:08:56.430Z,83.46
2022-09-13T00:09:28.152Z,83.59
2022-09-13T00:10:00.045Z,83.56
2022-09-13T00:10:34.617Z,83.46
2022-09-13T00:11:06.919Z,83.57
2022-09-13T00:11:39.195Z,83.52
2022-09-13T00:12:10.907Z,83.48
2022-09-13T00:12:42.869Z,83.44
2022-09-13T00:13:16.027Z,83.57
2022-09-13T00:13:47.934Z,83.46
2022-09-13T00:14:19.610Z,83.52
2022-09-13T00:14:51.376Z,83.51
2022-09-13T00:15:23.241Z,83.39
2022-09-13T00:15:54.940Z,83.45
2022-09-13T00:16:29.350Z,83.42
2022-09-13T00:17:01.507Z,83.46
2022-09-13T00:17:33.401Z,83.35
2022-09-13T00:18:05.159Z,83.43
2022-09-13T00:18:36.924Z,83.43
2022-09-13T00:19:08.749Z,83.48
2022-09-13T00:19:40.598Z,83.41
2022-09-13T00:20:12.590Z,83.35
2022-09-13T00:20:45.154Z,83.38
2022-09-13T00:21:19.007Z,83.47
2022-09-13T00:21:50.749Z,83.46
2022-09-13T00:22:22.464Z,83.40
2022-09-13T00:22:54.291Z,83.35
2022-09-13T00:23:26.023Z,83.35
2022-09-13T00:23:57.808Z,83.39
2022-09-13T00:24:29.530Z,83.34
2022-09-13T00:25:03.564Z,83.27
2022-09-13T00:25:35.590Z,83.41
2022-09-13T00:26:11.750Z,83.28
2022-09-13T00:26:43.536Z,83.28
2022-09-13T00:27:15.296Z,83.28
2022-09-13T00:27:47.448Z,83.27
2022-09-13T00:28:19.175Z,83.21
2022-09-13T00:28:56.126Z,83.20
2022-09-13T00:29:27.834Z,83.22
2022-09-13T00:30:00.286Z,83.24
2022-09-13T00:30:33.217Z,83.26
2022-09-13T00:31:07.882Z,83.25
2022-09-13T00:31:39.973Z,83.20
2022-09-13T00:32:12.861Z,83.18
2022-09-13T00:32:44.591Z,83.25
2022-09-13T00:33:16.402Z,83.39
2022-09-13T00:33:48.144Z,83.28
2022-09-13T00:34:19.928Z,83.34
2022-09-13T00:34:51.714Z,83.16
2022-09-13T00:35:24.023Z,83.24
2022-09-13T00:35:56.230Z,83.15
2022-09-13T00:36:28.520Z,83.30
2022-09-13T00:37:00.495Z,83.18
2022-09-13T00:37:33.770Z,83.16
2022-09-13T00:38:06.232Z,83.05
2022-09-13T00:38:39.591Z,83.11
2022-09-13T00:39:12.209Z,83.14
2022-09-13T00:39:47.948Z,83.08
2022-09-13T00:40:22.093Z,83.10
2022-09-13T00:40:53.863Z,83.08
2022-09-13T00:41:25.784Z,83.12
2022-09-13T00:41:57.532Z,83.05
2022-09-13T00:42:34.255Z,83.18
2022-09-13T00:43:13.761Z,83.11
2022-09-13T00:43:56.402Z,83.16
2022-09-13T00:44:53.396Z,83.13
2022-09-13T00:45:25.175Z,83.21
2022-09-13T00:45:57.152Z,83.06
2022-09-13T00:46:36.603Z,83.08
2022-09-13T00:47:08.328Z,82.98
2022-09-13T00:47:54.722Z,83.15
2022-09-13T00:48:26.472Z,83.12
2022-09-13T00:49:12.096Z,83.10
2022-09-13T00:49:47.063Z,83.00
2022-09-13T00:50:34.749Z,82.97
2022-09-13T00:51:09.111Z,82.94
2022-09-13T00:51:44.862Z,82.98
2022-09-13T00:52:21.282Z,82.93
2022-09-13T00:53:00.205Z,83.04
2022-09-13T00:53:35.433Z,82.98
2022-09-13T00:54:07.535Z,83.02
2022-09-13T00:54:44.850Z,82.99
2022-09-13T00:55:40.888Z,83.02
2022-09-13T00:56:22.196Z,82.99
2022-09-13T00:56:59.151Z,83.03
2022-09-13T00:57:34.841Z,83.05
2022-09-13T00:58:12.995Z,83.06
2022-09-13T00:58:58.185Z,83.05
2022-09-13T00:59:34.601Z,82.90
2022-09-13T01:00:13.422Z,82.92
2022-09-13T01:00:45.985Z,82.98
2022-09-13T01:01:20.596Z,83.04
2022-09-13T01:01:55.725Z,83.05
2022-09-13T01:02:28.590Z,83.03
2022-09-13T01:03:05.499Z,82.95
2022-09-13T01:03:39.573Z,83.05
2022-09-13T01:04:12.882Z,82.94
2022-09-13T01:04:45.127Z,83.09
2022-09-13T01:05:22.340Z,82.95
2022-09-13T01:06:01.696Z,83.02
2022-09-13T01:06:36.923Z,82.93
2022-09-13T01:07:13.499Z,82.92
2022-09-13T01:07:45.934Z,82.96
2022-09-13T01:08:24.613Z,83.04
2022-09-13T01:09:03.453Z,82.83
2022-09-13T01:09:38.729Z,83.07
2022-09-13T01:10:10.749Z,82.89
2022-09-13T01:10:44.615Z,83.05
2022-09-13T01:11:29.072Z,83.00
2022-09-13T01:12:09.776Z,83.00
2022-09-13T01:12:46.181Z,82.97
2022-09-13T01:13:21.258Z,82.85
2022-09-13T01:13:54.594Z,82.98
2022-09-13T01:14:27.586Z,82.90
2022-09-13T01:15:02.266Z,82.97
2022-09-13T01:15:34.041Z,83.08
2022-09-13T01:16:06.405Z,82.99
2022-09-13T01:16:38.339Z,83.03
2022-09-13T01:17:10.371Z,83.05
2022-09-13T01:17:43.723Z,83.01
2022-09-13T01:18:16.027Z,83.05
2022-09-13T01:18:47.795Z,82.89
2022-09-13T01:19:19.714Z,82.93
2022-09-13T01:19:51.555Z,83.07
2022-09-13T01:20:44.160Z,83.04
2022-09-13T01:21:18.670Z,83.01
2022-09-13T01:22:02.535Z,82.86
2022-09-13T01:22:34.158Z,82.97
2022-09-13T01:23:24.867Z,83.01
2022-09-13T01:24:32.392Z,82.99
2022-09-13T01:25:16.555Z,83.05
2022-09-13T01:26:40.327Z,82.98
2022-09-13T01:27:30.897Z,82.97
2022-09-13T01:28:11.289Z,83.11
2022-09-13T01:29:06.989Z,82.99
2022-09-13T01:30:17.784Z,83.11
2022-09-13T01:30:52.537Z,83.14
2022-09-13T01:31:52.389Z,83.10
2022-09-13T01:32:42.293Z,83.13
2022-09-13T01:33:51.164Z,83.14
2022-09-13T01:34:41.656Z,83.09
2022-09-13T01:35:27.316Z,83.18
2022-09-13T01:36:32.283Z,83.09
2022-09-13T01:37:18.960Z,83.19
2022-09-13T01:38:29.614Z,83.32
2022-09-13T01:39:22.072Z,83.10
2022-09-13T01:40:23.314Z,83.30
2022-09-13T01:41:08.931Z,83.37
2022-09-13T01:42:07.606Z,83.35
2022-09-13T01:42:46.825Z,83.31
2022-09-13T01:43:47.864Z,83.41
2022-09-13T01:44:20.029Z,83.33
2022-09-13T01:45:05.075Z,83.35
2022-09-13T01:45:58.801Z,83.41
2022-09-13T01:46:45.033Z,83.50
2022-09-13T01:47:32.442Z,83.43
2022-09-13T01:48:16.426Z,83.50
2022-09-13T01:49:00.095Z,83.49
2022-09-13T01:49:51.005Z,83.50
2022-09-13T01:50:28.757Z,83.60
2022-09-13T01:51:08.615Z,83.47
2022-09-13T01:51:49.717Z,83.50
2022-09-13T01:52:26.066Z,83.58
2022-09-13T01:53:03.549Z,83.46
2022-09-13T01:54:01.310Z,83.38
2022-09-13T01:54:53.652Z,83.50
2022-09-13T01:55:41.271Z,83.62
2022-09-13T01:56:51.180Z,83.45
2022-09-13T01:57:47.575Z,83.52
2022-09-13T01:58:29.341Z,83.52
2022-09-13T01:59:08.942Z,83.48
2022-09-13T01:59:53.953Z,83.50
2022-09-13T02:00:28.683Z,83.46
2022-09-13T02:01:10.705Z,83.62
2022-09-13T02:01:49.948Z,83.57
2022-09-13T02:02:52.498Z,83.60
2022-09-13T02:03:36.793Z,83.50
2022-09-13T02:04:22.412Z,83.65
2022-09-13T02:05:00.523Z,83.75
2022-09-13T02:05:40.202Z,83.65
2022-09-13T02:06:17.934Z,83.67
2022-09-13T02:07:08.591Z,83.74
2022-09-13T02:07:43.884Z,83.76
2022-09-13T02:08:35.446Z,83.67
2022-09-13T02:09:15.897Z,83.68
2022-09-13T02:09:57.809Z,83.52
2022-09-13T02:10:35.863Z,83.61
2022-09-13T02:11:13.336Z,83.68
2022-09-13T02:11:50.593Z,83.61
2022-09-13T02:12:25.229Z,83.72
2022-09-13T02:12:58.940Z,83.55
2022-09-13T02:13:37.425Z,83.53
2022-09-13T02:14:14.945Z,83.70
2022-09-13T02:14:55.022Z,83.67
2022-09-13T02:15:37.270Z,83.47
2022-09-13T02:16:16.257Z,83.47
2022-09-13T02:17:10.902Z,83.60
2022-09-13T02:17:49.213Z,83.61
2022-09-13T02:18:33.174Z,83.61
2022-09-13T02:19:21.516Z,83.60
2022-09-13T02:20:01.148Z,83.56
2022-09-13T02:20:40.393Z,83.50
2022-09-13T02:21:37.985Z,83.57
2022-09-13T02:22:15.485Z,83.43
2022-09-13T02:22:55.245Z,83.43
2022-09-13T02:23:37.429Z,83.44
2022-09-13T02:24:19.483Z,83.49
2022-09-13T02:25:04.538Z,83.50
2022-09-13T02:25:39.430Z,83.42
2022-09-13T02:26:15.116Z,83.45
2022-09-13T02:26:52.417Z,83.54
2022-09-13T02:27:28.356Z,83.50
2022-09-13T02:28:06.939Z,83.49
2022-09-13T02:28:45.330Z,83.57
2022-09-13T02:29:20.698Z,83.49
2022-09-13T02:29:57.910Z,83.55
2022-09-13T02:30:33.826Z,83.48
2022-09-13T02:31:08.997Z,83.54
2022-09-13T02:31:58.549Z,83.56
2022-09-13T02:32:35.442Z,83.44
2022-09-13T02:33:23.615Z,83.46
2022-09-13T02:33:59.944Z,83.48
2022-09-13T02:34:41.666Z,83.57
2022-09-13T02:35:29.993Z,83.47
2022-09-13T02:36:09.232Z,83.45
2022-09-13T02:36:45.028Z,83.66
2022-09-13T02:37:16.929Z,83.59
2022-09-13T02:37:55.832Z,83.53
2022-09-13T02:38:56.377Z,83.64
2022-09-13T02:39:31.117Z,83.50
2022-09-13T02:40:09.587Z,83.58
2022-09-13T02:40:59.267Z,83.59
2022-09-13T02:41:46.231Z,83.50
2022-09-13T02:42:22.395Z,83.62
2022-09-13T02:43:12.713Z,83.44
2022-09-13T02:43:53.565Z,83.50
2022-09-13T02:44:43.338Z,83.47
2022-09-13T02:45:15.443Z,83.36
2022-09-13T02:46:05.063Z,83.43
2022-09-13T02:47:01.782Z,83.48
2022-09-13T02:47:51.564Z,83.47
2022-09-13T02:48:55.019Z,83.53
2022-09-13T02:49:34.013Z,83.43
2022-09-13T02:50:35.274Z,83.43
2022-09-13T02:51:30.447Z,83.44
2022-09-13T02:52:23.957Z,83.44
2022-09-13T02:53:26.642Z,83.41
2022-09-13T02:54:20.071Z,83.51
2022-09-13T02:55:08.734Z,83.58
2022-09-13T02:55:52.547Z,83.59
2022-09-13T02:56:30.142Z,83.46
2022-09-13T02:57:30.839Z,83.45
2022-09-13T02:58:12.915Z,83.55
2022-09-13T02:58:57.984Z,83.47
2022-09-13T02:59:29.800Z,83.41
2022-09-13T03:00:01.930Z,83.58
2022-09-13T03:00:33.900Z,83.40
2022-09-13T03:01:05.644Z,83.57
2022-09-13T03:01:40.182Z,83.34
2022-09-13T03:02:19.244Z,83.39
2022-09-13T03:02:53.286Z,83.33
2022-09-13T03:03:25.046Z,83.35
2022-09-13T03:03:56.811Z,83.34
2022-09-13T03:04:28.919Z,83.30
2022-09-13T03:05:02.192Z,83.42
2022-09-13T03:05:34.696Z,83.44
2022-09-13T03:06:06.951Z,83.46
2022-09-13T03:06:41.685Z,83.36
2022-09-13T03:07:14.409Z,83.41
2022-09-13T03:07:47.472Z,83.53
2022-09-13T03:08:20.773Z,83.44
2022-09-13T03:08:54.886Z,83.35
2022-09-13T03:09:27.404Z,83.41
2022-09-13T03:10:05.484Z,83.34
2022-09-13T03:10:58.741Z,83.19
2022-09-13T03:11:33.006Z,83.21
2022-09-13T03:12:22.188Z,83.33
2022-09-13T03:13:03.210Z,83.27
2022-09-13T03:14:05.946Z,83.28
2022-09-13T03:14:44.608Z,83.34
2022-09-13T03:15:33.243Z,83.32
2022-09-13T03:16:05.131Z,83.34
2022-09-13T03:16:49.246Z,83.40
2022-09-13T03:17:21.112Z,83.27
2022-09-13T03:18:01.747Z,83.35
2022-09-13T03:19:06.438Z,83.21
2022-09-13T03:20:00.216Z,83.20
2022-09-13T03:21:10.554Z,83.21
2022-09-13T03:21:58.654Z,83.37
2022-09-13T03:22:58.596Z,83.37
2022-09-13T03:23:51.616Z,83.39
2022-09-13T03:24:32.281Z,83.38
2022-09-13T03:25:22.505Z,83.33
2022-09-13T03:26:04.095Z,83.28
2022-09-13T03:26:47.838Z,83.44
2022-09-13T03:28:00.808Z,83.56
2022-09-13T03:28:35.396Z,83.60
2022-09-13T03:29:31.243Z,83.59
2022-09-13T03:30:08.348Z,83.57
2022-09-13T03:30:48.562Z,83.60
2022-09-13T03:31:29.288Z,83.77
2022-09-13T03:32:21.991Z,83.78
2022-09-13T03:33:20.504Z,83.66
2022-09-13T03:33:59.144Z,83.73
2022-09-13T03:34:43.903Z,83.84
2022-09-13T03:35:50.155Z,83.85
2022-09-13T03:36:26.708Z,83.86
2022-09-13T03:37:08.236Z,83.79
2022-09-13T03:38:16.317Z,83.98
2022-09-13T03:39:03.082Z,83.86
2022-09-13T03:39:43.996Z,83.93
2022-09-13T03:40:40.423Z,84.05
2022-09-13T03:41:24.410Z,84.02
2022-09-13T03:42:01.109Z,83.95
2022-09-13T03:42:50.583Z,83.92
2022-09-13T03:43:46.608Z,84.00
2022-09-13T03:44:21.513Z,83.99
2022-09-13T03:44:56.816Z,84.08
2022-09-13T03:45:33.862Z,84.02
2022-09-13T03:46:20.835Z,84.05
2022-09-13T03:46:57.230Z,84.16
2022-09-13T03:47:32.503Z,84.10
2022-09-13T03:48:06.103Z,84.26
2022-09-13T03:48:40.676Z,84.16
2022-09-13T03:49:15.259Z,84.13
2022-09-13T03:49:48.668Z,84.13
2022-09-13T03:50:23.725Z,84.20
2022-09-13T03:50:55.875Z,84.19
2022-09-13T03:51:27.829Z,84.24
2022-09-13T03:52:00.425Z,84.13
2022-09-13T03:52:33.099Z,84.24
2022-09-13T03:53:08.719Z,84.20
2022-09-13T03:53:48.111Z,84.24
2022-09-13T03:54:24.078Z,84.24
2022-09-13T03:54:57.314Z,84.17
2022-09-13T03:55:31.404Z,84.32
2022-09-13T03:56:13.362Z,84.35
2022-09-13T03:57:08.336Z,84.06
2022-09-13T03:57:40.982Z,84.32
2022-09-13T03:58:15.232Z,84.23
2022-09-13T03:58:48.011Z,84.26
2022-09-13T03:59:20.176Z,84.36
2022-09-13T03:59:57.322Z,84.19
2022-09-13T04:00:29.127Z,84.28
2022-09-13T04:01:01.085Z,84.23
2022-09-13T04:01:32.925Z,84.33
2022-09-13T04:02:08.451Z,84.22
2022-09-13T04:02:40.797Z,84.23
2022-09-13T04:03:14.342Z,84.23
2022-09-13T04:03:46.571Z,84.24
2022-09-13T04:04:18.381Z,84.17
2022-09-13T04:04:50.875Z,84.27
2022-09-13T04:05:22.635Z,84.13
2022-09-13T04:05:54.394Z,84.24
2022-09-13T04:06:26.180Z,84.16
2022-09-13T04:06:58.437Z,84.17
2022-09-13T04:07:30.093Z,84.16
2022-09-13T04:08:05.251Z,84.15
2022-09-13T04:08:37.084Z,84.04
2022-09-13T04:09:08.818Z,84.13
2022-09-13T04:09:41.186Z,84.01
2022-09-13T04:10:14.071Z,83.99
2022-09-13T04:10:51.730Z,84.00
2022-09-13T04:11:23.711Z,84.08
2022-09-13T04:11:55.549Z,84.08
2022-09-13T04:12:31.428Z,84.07
2022-09-13T04:13:03.386Z,84.14
2022-09-13T04:13:36.322Z,84.04
2022-09-13T04:14:08.149Z,84.07
2022-09-13T04:14:41.118Z,84.02
2022-09-13T04:15:12.919Z,83.95
2022-09-13T04:15:44.503Z,83.87
2022-09-13T04:16:16.286Z,83.94
2022-09-13T04:16:48.111Z,83.90
2022-09-13T04:17:20.345Z,83.88
2022-09-13T04:17:52.766Z,83.87
2022-09-13T04:18:24.531Z,83.81
2022-09-13T04:18:56.453Z,83.81
2022-09-13T04:19:28.320Z,83.77
2022-09-13T04:20:00.289Z,83.78
2022-09-13T04:20:32.247Z,83.84
2022-09-13T04:21:04.336Z,83.70
2022-09-13T04:21:36.226Z,84.00
2022-09-13T04:22:08.077Z,83.84
2022-09-13T04:22:40.056Z,83.83
2022-09-13T04:23:11.789Z,83.76
2022-09-13T04:23:43.674Z,83.73
2022-09-13T04:24:16.595Z,83.83
2022-09-13T04:24:48.206Z,83.70
2022-09-13T04:25:22.046Z,83.76
2022-09-13T04:25:54.444Z,83.59
2022-09-13T04:26:26.252Z,83.59
2022-09-13T04:26:58.538Z,83.65
2022-09-13T04:27:30.361Z,83.57
2022-09-13T04:28:02.197Z,83.62
2022-09-13T04:28:34.060Z,83.48
2022-09-13T04:29:05.840Z,83.63
2022-09-13T04:29:37.749Z,83.52
2022-09-13T04:30:10.877Z,83.42
2022-09-13T04:30:46.559Z,83.51
2022-09-13T04:31:18.453Z,83.49
2022-09-13T04:31:52.080Z,83.60
2022-09-13T04:32:24.109Z,83.38
2022-09-13T04:32:59.583Z,83.49
2022-09-13T04:33:31.859Z,83.33
2022-09-13T04:34:05.266Z,83.51
2022-09-13T04:34:37.031Z,83.46
2022-09-13T04:35:09.028Z,83.35
2022-09-13T04:35:40.699Z,83.35
2022-09-13T04:36:12.488Z,83.34
2022-09-13T04:36:45.742Z,83.29
2022-09-13T04:37:17.431Z,83.35
2022-09-13T04:37:49.356Z,83.39
2022-09-13T04:38:21.043Z,83.43
2022-09-13T04:38:52.792Z,83.27
2022-09-13T04:39:24.532Z,83.37
2022-09-13T04:39:56.827Z,83.28
2022-09-13T04:40:29.029Z,83.24
2022-09-13T04:41:00.856Z,83.21
2022-09-13T04:41:34.077Z,83.32
2022-09-13T04:42:06.982Z,83.24
2022-09-13T04:42:38.913Z,83.31
2022-09-13T04:43:10.836Z,83.30
2022-09-13T04:43:43.212Z,83.25
2022-09-13T04:44:16.841Z,83.23
2022-09-13T04:44:49.722Z,83.24
2022-09-13T04:45:21.751Z,83.18
2022-09-13T04:45:53.517Z,83.32
2022-09-13T04:46:25.269Z,83.17
2022-09-13T04:46:56.972Z,83.07
2022-09-13T04:47:28.713Z,83.09
2022-09-13T04:48:00.519Z,83.35
2022-09-13T04:48:32.254Z,83.09
2022-09-13T04:49:04.472Z,83.25
2022-09-13T04:49:36.276Z,83.08
2022-09-13T04:50:09.510Z,83.07
2022-09-13T04:50:41.844Z,83.08
2022-09-13T04:51:14.476Z,83.05
2022-09-13T04:51:46.561Z,83.08
2022-09-13T04:52:18.398Z,83.04
2022-09-13T04:52:53.732Z,83.06
2022-09-13T04:53:25.680Z,82.96
2022-09-13T04:53:57.619Z,83.02
2022-09-13T04:54:29.494Z,83.02
2022-09-13T04:55:02.629Z,83.02
2022-09-13T04:55:36.344Z,83.02
2022-09-13T04:56:09.116Z,83.01
2022-09-13T04:56:40.934Z,82.97
2022-09-13T04:57:14.469Z,83.13
2022-09-13T04:57:46.163Z,83.08
2022-09-13T04:58:18.428Z,83.04
2022-09-13T04:58:51.182Z,83.13
2022-09-13T04:59:23.167Z,83.01
2022-09-13T04:59:55.159Z,83.00
2022-09-13T05:00:27.003Z,82.97
2022-09-13T05:01:07.958Z,83.03
2022-09-13T05:01:40.809Z,83.04
2022-09-13T05:02:12.847Z,82.96
2022-09-13T05:02:44.543Z,83.06
2022-09-13T05:03:16.436Z,82.90
2022-09-13T05:03:49.999Z,83.04
2022-09-13T05:04:21.769Z,82.83
2022-09-13T05:04:53.762Z,82.91
2022-09-13T05:05:25.476Z,82.93
2022-09-13T05:06:05.096Z,82.88
2022-09-13T05:06:37.200Z,83.00
2022-09-13T05:07:08.983Z,82.81
2022-09-13T05:07:40.750Z,82.84
2022-09-13T05:08:12.440Z,82.81
2022-09-13T05:08:44.923Z,82.81
2022-09-13T05:09:16.700Z,82.88
2022-09-13T05:09:48.485Z,82.80
2022-09-13T05:10:20.265Z,82.87
2022-09-13T05:10:52.226Z,82.83
2022-09-13T05:11:26.376Z,82.74
2022-09-13T05:11:58.034Z,82.84
2022-09-13T05:12:29.720Z,82.72
2022-09-13T05:13:01.519Z,82.72
2022-09-13T05:13:33.843Z,82.68
2022-09-13T05:14:06.123Z,82.62
2022-09-13T05:14:37.940Z,82.47
2022-09-13T05:15:11.782Z,82.63
2022-09-13T05:15:44.111Z,82.61
2022-09-13T05:16:15.919Z,82.63
2022-09-13T05:16:47.945Z,82.54
2022-09-13T05:17:21.397Z,82.61
2022-09-13T05:17:53.275Z,82.48
2022-09-13T05:18:29.564Z,82.60
2022-09-13T05:19:01.969Z,82.59
2022-09-13T05:19:34.797Z,82.59
2022-09-13T05:20:07.259Z,82.61
2022-09-13T05:20:38.968Z,82.54
2022-09-13T05:21:10.710Z,82.48
2022-09-13T05:21:42.596Z,82.57
2022-09-13T05:22:14.434Z,82.48
2022-09-13T05:22:46.209Z,82.44
2022-09-13T05:23:18.079Z,82.34
2022-09-13T05:23:51.190Z,82.38
2022-09-13T05:24:23.084Z,82.41
2022-09-13T05:24:55.388Z,82.28
2022-09-13T05:25:27.168Z,82.35
2022-09-13T05:26:05.457Z,82.44
2022-09-13T05:26:37.524Z,82.34
2022-09-13T05:27:10.786Z,82.37
2022-09-13T05:27:45.316Z,82.28
2022-09-13T05:28:16.978Z,82.26
2022-09-13T05:28:49.611Z,82.26
2022-09-13T05:29:21.494Z,82.23
2022-09-13T05:29:53.311Z,82.30
2022-09-13T05:30:25.030Z,82.30
2022-09-13T05:31:06.055Z,82.33
2022-09-13T05:31:40.412Z,82.32
2022-09-13T05:32:12.236Z,82.37
2022-09-13T05:32:44.089Z,82.32
2022-09-13T05:33:15.783Z,82.44
2022-09-13T05:33:52.368Z,82.40
2022-09-13T05:34:24.158Z,82.34
2022-09-13T05:34:55.913Z,82.33
2022-09-13T05:35:27.762Z,82.23
2022-09-13T05:35:59.690Z,82.27
2022-09-13T05:36:32.748Z,82.16
2022-09-13T05:37:04.521Z,82.02
2022-09-13T05:37:36.509Z,82.14
2022-09-13T05:38:08.254Z,82.02
2022-09-13T05:38:40.088Z,82.09
2022-09-13T05:40:00.288Z,81.96
2022-09-13T05:40:13.486Z,82.02
2022-09-13T05:40:46.245Z,82.08
2022-09-13T05:41:18.068Z,82.10
2022-09-13T05:41:49.867Z,82.11
2022-09-13T05:42:21.881Z,82.21
2022-09-13T05:42:53.639Z,82.11
2022-09-13T05:43:28.024Z,82.05
2022-09-13T05:44:07.957Z,81.89
2022-09-13T05:44:43.890Z,81.90
2022-09-13T05:45:15.779Z,81.86
2022-09-13T05:45:47.879Z,81.84
2022-09-13T05:46:21.299Z,81.89
2022-09-13T05:46:53.213Z,81.81
2022-09-13T05:47:24.939Z,81.84
2022-09-13T05:47:56.704Z,81.71
2022-09-13T05:48:29.660Z,81.70
2022-09-13T05:49:01.389Z,81.73
2022-09-13T05:49:33.307Z,81.69
2022-09-13T05:50:10.778Z,81.55
2022-09-13T05:50:57.871Z,81.51
2022-09-13T05:51:30.808Z,81.48
2022-09-13T05:52:02.423Z,81.49
2022-09-13T05:52:34.116Z,81.48
2022-09-13T05:53:06.150Z,81.46
2022-09-13T05:53:39.640Z,81.39
2022-09-13T05:54:12.266Z,81.44
2022-09-13T05:54:44.042Z,81.39
2022-09-13T05:55:15.924Z,81.35
2022-09-13T05:55:47.917Z,81.26
2022-09-13T05:56:28.769Z,81.23
2022-09-13T05:57:00.600Z,81.19
2022-09-13T05:57:32.359Z,81.23
2022-09-13T05:58:04.190Z,81.20
2022-09-13T05:58:41.047Z,81.16
2022-09-13T05:59:14.385Z,81.12
2022-09-13T05:59:47.594Z,81.12
2022-09-13T06:00:19.637Z,81.07
2022-09-13T06:00:56.140Z,81.02
2022-09-13T06:01:28.879Z,81.01
2022-09-13T06:02:00.738Z,80.91
2022-09-13T06:02:32.633Z,80.92
2022-09-13T06:03:04.605Z,80.86
2022-09-13T06:03:36.694Z,80.90
2022-09-13T06:04:08.422Z,80.74
2022-09-13T06:04:40.395Z,80.63
2022-09-13T06:05:12.596Z,80.58
2022-09-13T06:05:44.225Z,80.51
2022-09-13T06:06:17.078Z,80.42
2022-09-13T06:06:48.895Z,80.38
2022-09-13T06:07:20.636Z,80.29
2022-09-13T06:07:52.318Z,80.29
2022-09-13T06:08:25.462Z,80.33
2022-09-13T06:08:57.823Z,80.28
2022-09-13T06:09:29.719Z,80.23
2022-09-13T06:10:02.062Z,80.20
2022-09-13T06:10:33.847Z,80.13
2022-09-13T06:11:11.319Z,80.14
2022-09-13T06:11:43.140Z,80.12
2022-09-13T06:12:14.968Z,80.19
2022-09-13T06:12:47.114Z,80.13
2022-09-13T06:13:18.859Z,80.13
2022-09-13T06:13:50.855Z,80.00
2022-09-13T06:14:22.894Z,79.96
2022-09-13T06:14:54.688Z,79.86
2022-09-13T06:15:26.384Z,79.88
2022-09-13T06:16:00.381Z,79.90
2022-09-13T06:16:32.217Z,79.85
2022-09-13T06:17:04.155Z,79.82
2022-09-13T06:17:35.951Z,79.83
2022-09-13T06:18:07.642Z,79.81
2022-09-13T06:18:40.419Z,79.90
2022-09-13T06:19:12.150Z,79.91
2022-09-13T06:19:44.106Z,79.87
2022-09-13T06:20:15.950Z,79.89
2022-09-13T06:20:48.493Z,79.89
2022-09-13T06:21:25.905Z,79.87
2022-09-13T06:21:59.006Z,79.84
2022-09-13T06:22:32.893Z,79.79
2022-09-13T06:23:04.658Z,79.92
2022-09-13T06:23:37.218Z,79.81
2022-09-13T06:24:09.430Z,79.84
2022-09-13T06:24:41.224Z,79.85
2022-09-13T06:25:13.130Z,79.76
2022-09-13T06:25:45.011Z,79.80
2022-09-13T06:26:19.896Z,79.82
2022-09-13T06:26:52.064Z,79.76
2022-09-13T06:27:23.740Z,79.76
2022-09-13T06:27:55.639Z,79.76
2022-09-13T06:28:27.756Z,79.70
2022-09-13T06:28:59.936Z,79.53
2022-09-13T06:29:32.126Z,79.52
2022-09-13T06:30:05.016Z,79.49
2022-09-13T06:30:36.847Z,79.50
2022-09-13T06:31:11.686Z,79.55
2022-09-13T06:31:44.896Z,79.52
2022-09-13T06:32:16.891Z,79.57
2022-09-13T06:32:48.593Z,79.55
2022-09-13T06:33:20.493Z,79.52
2022-09-13T06:33:58.013Z,79.61
2022-09-13T06:34:31.494Z,79.56
2022-09-13T06:35:03.785Z,79.60
2022-09-13T06:35:36.693Z,79.65
2022-09-13T06:36:19.527Z,79.48
2022-09-13T06:36:51.437Z,79.63
2022-09-13T06:37:23.303Z,79.61
2022-09-13T06:37:57.061Z,79.59
2022-09-13T06:38:29.235Z,79.50
2022-09-13T06:39:01.717Z,79.40
2022-09-13T06:39:34.378Z,79.36
2022-09-13T06:40:07.088Z,79.17
2022-09-13T06:40:39.046Z,79.15
2022-09-13T06:41:13.605Z,79.08
2022-09-13T06:41:45.851Z,79.04
2022-09-13T06:42:18.282Z,78.95
2022-09-13T06:42:50.339Z,78.84
2022-09-13T06:43:21.932Z,78.84
2022-09-13T06:43:56.887Z,78.71
2022-09-13T06:44:28.741Z,78.52
2022-09-13T06:45:00.377Z,78.34
2022-09-13T06:45:32.049Z,78.30
2022-09-13T06:46:09.036Z,77.93
2022-09-13T06:46:41.213Z,77.93
2022-09-13T06:47:13.216Z,77.89
2022-09-13T06:47:45.035Z,77.72
2022-09-13T06:48:18.035Z,77.72
2022-09-13T06:48:50.074Z,77.81
2022-09-13T06:49:22.052Z,77.76
2022-09-13T06:49:53.850Z,77.80
2022-09-13T06:50:25.659Z,77.63
2022-09-13T06:50:59.868Z,77.47
2022-09-13T06:51:32.875Z,77.36
2022-09-13T06:52:05.182Z,77.24
2022-09-13T06:52:37.051Z,77.21
2022-09-13T06:53:08.924Z,77.18
2022-09-13T06:53:41.859Z,77.14
2022-09-13T06:54:13.749Z,77.03
2022-09-13T06:54:45.609Z,77.01
2022-09-13T06:55:17.316Z,77.00
2022-09-13T06:55:49.226Z,76.95
2022-09-13T06:56:23.863Z,76.88
2022-09-13T06:56:55.657Z,76.82
2022-09-13T06:57:30.385Z,76.71
2022-09-13T06:58:02.059Z,76.66
2022-09-13T06:58:35.807Z,76.42
2022-09-13T06:59:10.052Z,76.41
2022-09-13T06:59:41.884Z,76.33
2022-09-13T07:00:14.350Z,76.25
2022-09-13T07:00:46.121Z,76.30
2022-09-13T07:01:23.988Z,76.26
2022-09-13T07:01:56.715Z,76.29
2022-09-13T07:02:28.658Z,76.36
2022-09-13T07:03:00.335Z,76.32
2022-09-13T07:03:32.086Z,76.22
2022-09-13T07:04:05.569Z,76.23
2022-09-13T07:04:37.331Z,76.22
2022-09-13T07:05:10.453Z,76.13
2022-09-13T07:05:42.360Z,76.14
2022-09-13T07:06:21.556Z,76.12
2022-09-13T07:06:54.276Z,76.20
2022-09-13T07:07:26.168Z,76.18
2022-09-13T07:07:57.839Z,76.14
2022-09-13T07:08:31.192Z,75.96
2022-09-13T07:09:05.761Z,76.01
2022-09-13T07:09:37.514Z,75.91
2022-09-13T07:10:09.748Z,75.85
2022-09-13T07:10:41.604Z,75.82
2022-09-13T07:11:15.685Z,75.66
2022-09-13T07:11:50.363Z,75.53
2022-09-13T07:12:22.361Z,75.40
2022-09-13T07:12:54.247Z,75.17
2022-09-13T07:13:26.057Z,75.15
2022-09-13T07:13:59.255Z,74.92
2022-09-13T07:14:31.233Z,74.83
2022-09-13T07:15:03.182Z,74.69
2022-09-13T07:15:36.304Z,74.56
2022-09-13T07:16:10.938Z,74.59
2022-09-13T07:16:43.485Z,74.49
2022-09-13T07:17:15.314Z,74.40
2022-09-13T07:17:47.010Z,74.31
2022-09-13T07:18:18.938Z,74.26
2022-09-13T07:18:56.201Z,74.43
2022-09-13T07:19:28.922Z,74.55
2022-09-13T07:20:01.090Z,74.63
2022-09-13T07:20:32.853Z,74.75
2022-09-13T07:21:07.817Z,74.83
2022-09-13T07:21:39.701Z,74.85
2022-09-13T07:22:11.612Z,74.96
2022-09-13T07:22:43.319Z,74.92
2022-09-13T07:23:15.506Z,74.77
2022-09-13T07:23:47.416Z,74.62
2022-09-13T07:24:20.444Z,74.35
2022-09-13T07:24:52.645Z,74.08
2022-09-13T07:25:24.371Z,73.83
2022-09-13T07:26:01.512Z,73.79
2022-09-13T07:26:34.010Z,73.78
2022-09-13T07:27:05.873Z,73.65
2022-09-13T07:27:37.562Z,73.59
2022-09-13T07:28:09.459Z,73.35
2022-09-13T07:28:47.465Z,73.28
2022-09-13T07:29:23.271Z,73.24
2022-09-13T07:29:55.202Z,73.28
2022-09-13T07:30:27.276Z,73.32
2022-09-13T07:31:12.337Z,73.39
2022-09-13T07:31:46.392Z,73.41
2022-09-13T07:32:19.327Z,73.42
2022-09-13T07:32:51.055Z,73.45
2022-09-13T07:33:23.538Z,73.46
2022-09-13T07:34:00.952Z,73.55
2022-09-13T07:34:32.801Z,73.62
2022-09-13T07:35:06.428Z,73.49
2022-09-13T07:35:38.150Z,73.51
2022-09-13T07:36:11.582Z,73.48
2022-09-13T07:36:46.348Z,73.46
2022-09-13T07:37:18.005Z,73.47
2022-09-13T07:37:49.847Z,73.44
2022-09-13T07:38:21.506Z,73.35
2022-09-13T07:38:53.575Z,73.25
2022-09-13T07:39:25.400Z,73.15
2022-09-13T07:39:57.940Z,73.19
2022-09-13T07:40:29.960Z,72.98
2022-09-13T07:41:06.008Z,72.86
2022-09-13T07:41:38.272Z,72.82
2022-09-13T07:42:10.035Z,72.73
2022-09-13T07:42:41.902Z,72.60
2022-09-13T07:43:13.681Z,72.63
2022-09-13T07:43:46.337Z,72.47
2022-09-13T07:44:18.288Z,72.58
2022-09-13T07:44:50.107Z,72.52
2022-09-13T07:45:23.089Z,72.56
2022-09-13T07:45:59.655Z,72.74
2022-09-13T07:46:33.088Z,72.66
2022-09-13T07:47:04.958Z,72.66